createdAt,value
2018-11-10T00:01:53.761Z,6.30
2018-11-10T00:04:27.714Z,6.40
2018-11-10T00:07:01.061Z,6.30
2018-11-10T00:09:34.757Z,6.30
2018-11-10T00:12:09.811Z,6.40
2018-11-10T00:14:44.839Z,6.40
2018-11-10T00:17:18.093Z,6.30
2018-11-10T00:19:51.473Z,6.30
2018-11-10T00:22:24.754Z,6.30
2018-11-10T00:24:59.681Z,6.30
2018-11-10T00:27:32.840Z,6.20
2018-11-10T00:30:06.645Z,6.20
2018-11-10T00:32:39.549Z,6.20
2018-11-10T00:35:13.578Z,6.20
2018-11-10T00:37:47.526Z,6.10
2018-11-10T00:40:21.724Z,6.10
2018-11-10T00:42:55.014Z,6.10
2018-11-10T00:45:28.417Z,6.00
2018-11-10T00:48:01.579Z,6.00
2018-11-10T00:50:34.692Z,6.00
2018-11-10T00:53:08.493Z,6.00
2018-11-10T00:55:43.046Z,6.00
2018-11-10T00:58:17.050Z,6.00
2018-11-10T01:00:50.462Z,6.00
2018-11-10T01:03:23.652Z,6.00
2018-11-10T01:05:57.161Z,6.10
2018-11-10T01:08:30.688Z,6.10
2018-11-10T01:11:04.014Z,6.10
2018-11-10T01:13:38.009Z,6.00
2018-11-10T01:16:12.133Z,6.00
2018-11-10T01:18:45.334Z,6.00
2018-11-10T01:21:19.770Z,6.00
2018-11-10T01:23:53.948Z,6.10
2018-11-10T01:26:27.754Z,6.00
2018-11-10T01:29:01.436Z,6.00
2018-11-10T01:31:34.802Z,6.00
2018-11-10T01:34:08.286Z,6.00
2018-11-10T01:36:43.395Z,6.00
2018-11-10T01:39:16.427Z,6.00
2018-11-10T01:41:50.267Z,5.90
2018-11-10T01:44:23.655Z,5.90
2018-11-10T01:46:57.905Z,6.00
2018-11-10T01:49:31.610Z,6.00
2018-11-10T01:52:07.392Z,6.00
2018-11-10T01:54:40.661Z,6.00
2018-11-10T01:57:13.974Z,6.00
2018-11-10T01:59:47.199Z,6.00
2018-11-10T02:02:21.186Z,6.00
2018-11-10T02:04:54.591Z,6.00
2018-11-10T02:07:27.870Z,6.00
2018-11-10T02:10:01.337Z,6.00
2018-11-10T02:12:35.737Z,6.00
2018-11-10T02:15:10.883Z,6.00
2018-11-10T02:17:44.272Z,6.00
2018-11-10T02:20:17.933Z,6.00
2018-11-10T02:22:52.617Z,6.00
2018-11-10T02:25:27.287Z,6.00
2018-11-10T02:28:03.209Z,6.00
2018-11-10T02:30:37.508Z,5.90
2018-11-10T02:33:10.744Z,5.90
2018-11-10T02:35:43.915Z,5.90
2018-11-10T02:38:17.124Z,6.00
2018-11-10T02:40:50.704Z,5.90
2018-11-10T02:43:24.175Z,5.90
2018-11-10T02:45:57.449Z,5.90
2018-11-10T02:48:30.603Z,5.90
2018-11-10T02:51:04.045Z,5.90
2018-11-10T02:53:39.493Z,6.00
2018-11-10T02:56:12.512Z,6.00
2018-11-10T02:58:46.636Z,6.00
2018-11-10T03:01:20.722Z,5.90
2018-11-10T03:03:55.680Z,6.00
2018-11-10T03:06:32.216Z,6.00
2018-11-10T03:09:06.025Z,6.00
2018-11-10T03:11:39.898Z,6.00
2018-11-10T03:14:13.295Z,6.00
2018-11-10T03:16:46.665Z,6.00
2018-11-10T03:19:20.765Z,5.90
2018-11-10T03:21:55.295Z,5.90
2018-11-10T03:24:28.810Z,5.70
2018-11-10T03:27:03.742Z,5.70
2018-11-10T03:29:37.208Z,5.70
2018-11-10T03:32:11.963Z,5.80
2018-11-10T03:34:46.023Z,5.80
2018-11-10T03:37:20.735Z,5.80
2018-11-10T03:39:55.590Z,5.80
2018-11-10T03:42:29.445Z,5.90
2018-11-10T03:45:02.774Z,5.90
2018-11-10T03:47:36.277Z,5.90
2018-11-10T03:50:11.092Z,5.90
2018-11-10T03:52:45.359Z,5.80
2018-11-10T03:55:19.508Z,5.70
2018-11-10T03:57:53.486Z,5.60
2018-11-10T04:00:27.854Z,5.70
2018-11-10T04:03:01.583Z,5.70
2018-11-10T04:05:34.902Z,5.80
2018-11-10T04:08:09.378Z,5.80
2018-11-10T04:10:42.764Z,5.70
2018-11-10T04:13:16.273Z,5.50
2018-11-10T04:15:50.929Z,5.50
2018-11-10T04:18:24.893Z,5.60
2018-11-10T04:20:59.812Z,5.70
2018-11-10T04:23:33.553Z,5.70
2018-11-10T04:26:07.112Z,5.80
2018-11-10T04:28:40.220Z,5.80
2018-11-10T04:31:14.622Z,5.80
2018-11-10T04:33:49.786Z,5.80
2018-11-10T04:36:22.923Z,5.80
2018-11-10T04:38:56.148Z,5.80
2018-11-10T04:41:29.386Z,5.90
2018-11-10T04:44:02.839Z,5.90
2018-11-10T04:46:37.091Z,5.90
2018-11-10T04:49:11.540Z,5.90
2018-11-10T04:51:44.648Z,5.70
2018-11-10T04:54:19.812Z,5.60
2018-11-10T04:56:53.673Z,5.70
2018-11-10T04:59:26.317Z,5.80
2018-11-10T05:01:59.572Z,5.80
2018-11-10T05:04:33.055Z,5.80
2018-11-10T05:07:05.799Z,5.80
2018-11-10T05:09:39.847Z,5.90
2018-11-10T05:12:14.460Z,5.80
2018-11-10T05:14:48.095Z,5.90
2018-11-10T05:17:21.816Z,5.90
2018-11-10T05:19:56.323Z,5.90
2018-11-10T05:22:30.520Z,5.80
2018-11-10T05:25:10.143Z,5.80
2018-11-10T05:27:45.708Z,5.80
2018-11-10T05:30:18.864Z,5.80
2018-11-10T05:32:52.559Z,5.90
2018-11-10T05:35:28.760Z,5.80
2018-11-10T05:38:02.648Z,5.70
2018-11-10T05:40:35.955Z,5.70
2018-11-10T05:43:09.225Z,5.60
2018-11-10T05:45:47.742Z,5.60
2018-11-10T05:48:21.134Z,5.60
2018-11-10T05:50:55.729Z,5.50
2018-11-10T05:53:29.585Z,5.40
2018-11-10T05:56:02.935Z,5.40
2018-11-10T05:58:36.894Z,5.40
2018-11-10T06:01:11.281Z,5.40
2018-11-10T06:03:45.016Z,5.30
2018-11-10T06:06:18.157Z,5.30
2018-11-10T06:08:51.712Z,5.30
2018-11-10T06:11:25.019Z,5.40
2018-11-10T06:13:58.186Z,5.50
2018-11-10T06:16:32.532Z,5.50
2018-11-10T06:19:05.788Z,5.50
2018-11-10T06:21:39.615Z,5.60
2018-11-10T06:24:16.945Z,5.50
2018-11-10T06:26:50.218Z,5.60
2018-11-10T06:29:24.344Z,5.60
2018-11-10T06:31:58.620Z,5.60
2018-11-10T06:34:32.061Z,5.60
2018-11-10T06:37:05.525Z,5.60
2018-11-10T06:39:40.167Z,5.70
2018-11-10T06:42:15.075Z,5.70
2018-11-10T06:44:48.785Z,5.60
2018-11-10T06:47:22.550Z,5.50
2018-11-10T06:49:55.390Z,5.40
2018-11-10T06:52:28.815Z,5.30
2018-11-10T06:55:02.844Z,5.40
2018-11-10T06:57:37.565Z,5.40
2018-11-10T07:00:12.273Z,5.40
2018-11-10T07:02:46.585Z,5.40
2018-11-10T07:05:19.513Z,5.40
2018-11-10T07:07:53.602Z,5.50
2018-11-10T07:10:29.969Z,5.30
2018-11-10T07:13:03.148Z,5.30
2018-11-10T07:15:36.193Z,5.40
2018-11-10T07:18:09.833Z,5.40
2018-11-10T07:20:45.486Z,5.40
2018-11-10T07:23:18.863Z,5.50
2018-11-10T07:25:53.816Z,5.50
2018-11-10T07:28:27.524Z,5.50
2018-11-10T07:31:04.043Z,5.50
2018-11-10T07:33:37.418Z,5.40
2018-11-10T07:36:10.983Z,5.40
2018-11-10T07:38:44.157Z,5.40
2018-11-10T07:41:17.439Z,5.30
2018-11-10T07:43:50.559Z,5.40
2018-11-10T07:46:26.901Z,5.40
2018-11-10T07:49:01.363Z,5.40
2018-11-10T07:51:35.303Z,5.40
2018-11-10T07:54:08.326Z,5.40
2018-11-10T07:56:41.697Z,5.40
2018-11-10T07:59:15.032Z,5.40
2018-11-10T08:01:54.202Z,5.40
2018-11-10T08:04:27.555Z,5.40
2018-11-10T08:07:01.169Z,5.50
2018-11-10T08:09:34.546Z,5.50
2018-11-10T08:12:08.393Z,5.50
2018-11-10T08:14:42.057Z,5.40
2018-11-10T08:17:15.037Z,5.40
2018-11-10T08:19:48.342Z,5.40
2018-11-10T08:22:21.598Z,5.40
2018-11-10T08:24:55.092Z,5.40
2018-11-10T08:27:28.834Z,5.40
2018-11-10T08:30:02.420Z,5.50
2018-11-10T08:32:35.709Z,5.50
2018-11-10T08:35:09.637Z,5.50
2018-11-10T08:37:42.961Z,5.50
2018-11-10T08:40:18.696Z,5.50
2018-11-10T08:42:52.084Z,5.50
2018-11-10T08:45:30.453Z,5.60
2018-11-10T08:48:03.570Z,5.50
2018-11-10T08:50:36.716Z,5.50
2018-11-10T08:53:25.323Z,5.60
2018-11-10T08:55:58.651Z,5.60
2018-11-10T08:58:33.280Z,5.60
2018-11-10T09:01:06.100Z,5.60
2018-11-10T09:03:39.929Z,5.60
2018-11-10T09:06:17.484Z,5.60
2018-11-10T09:08:50.761Z,5.60
2018-11-10T09:11:24.348Z,5.60
2018-11-10T09:13:59.867Z,5.60
2018-11-10T09:16:33.150Z,5.60
2018-11-10T09:19:14.983Z,5.70
2018-11-10T09:21:49.079Z,5.70
2018-11-10T09:24:23.093Z,5.70
2018-11-10T09:26:57.030Z,5.70
2018-11-10T09:29:31.401Z,5.70
2018-11-10T09:32:04.945Z,5.80
2018-11-10T09:34:38.736Z,5.80
2018-11-10T09:37:14.032Z,5.80
2018-11-10T09:39:48.027Z,5.80
2018-11-10T09:42:21.474Z,5.80
2018-11-10T09:44:54.981Z,5.80
2018-11-10T09:47:28.621Z,5.80
2018-11-10T09:50:01.832Z,5.70
2018-11-10T09:52:34.835Z,5.70
2018-11-10T09:55:08.523Z,5.60
2018-11-10T09:57:41.971Z,5.70
2018-11-10T10:00:19.442Z,5.70
2018-11-10T10:02:53.083Z,5.80
2018-11-10T10:05:27.603Z,5.80
2018-11-10T10:08:00.766Z,5.80
2018-11-10T10:10:34.212Z,5.80
2018-11-10T10:13:09.037Z,5.80
2018-11-10T10:15:42.275Z,5.80
2018-11-10T10:18:15.555Z,5.80
2018-11-10T10:20:48.692Z,5.90
2018-11-10T10:23:21.566Z,5.90
2018-11-10T10:25:54.821Z,5.80
2018-11-10T10:28:27.960Z,5.90
2018-11-10T10:31:02.178Z,5.90
2018-11-10T10:33:35.586Z,5.80
2018-11-10T10:36:09.246Z,5.80
2018-11-10T10:38:43.341Z,5.80
2018-11-10T10:41:16.571Z,5.80
2018-11-10T10:43:49.939Z,5.80
2018-11-10T10:46:25.332Z,5.80
2018-11-10T10:48:59.154Z,5.80
2018-11-10T10:51:32.284Z,5.80
2018-11-10T10:54:05.779Z,5.60
2018-11-10T10:56:39.363Z,5.40
2018-11-10T10:59:12.617Z,5.40
2018-11-10T11:03:58.697Z,5.50
2018-11-10T11:06:31.916Z,5.50
2018-11-10T11:09:06.196Z,5.50
2018-11-10T11:11:40.555Z,5.50
2018-11-10T11:14:14.847Z,5.50
2018-11-10T11:16:48.034Z,5.50
2018-11-10T11:19:23.604Z,5.50
2018-11-10T11:21:57.042Z,5.50
2018-11-10T11:24:30.728Z,5.50
2018-11-10T11:27:03.846Z,5.40
2018-11-10T11:29:37.047Z,5.40
2018-11-10T11:32:12.088Z,5.30
2018-11-10T11:34:46.342Z,5.30
2018-11-10T11:37:19.811Z,5.30
2018-11-10T11:39:53.814Z,5.30
2018-11-10T11:42:27.208Z,5.30
2018-11-10T11:45:01.522Z,5.40
2018-11-10T11:47:34.466Z,5.40
2018-11-10T11:50:08.598Z,5.40
2018-11-10T11:52:43.429Z,5.40
2018-11-10T11:55:16.983Z,5.40
2018-11-10T11:57:51.398Z,5.40
2018-11-10T12:00:25.728Z,5.40
2018-11-10T12:02:59.601Z,5.40
2018-11-10T12:05:33.304Z,5.40
2018-11-10T12:08:08.079Z,5.50
2018-11-10T12:10:41.041Z,5.50
2018-11-10T12:13:14.395Z,5.40
2018-11-10T12:15:47.717Z,5.50
2018-11-10T12:18:20.886Z,5.50
2018-11-10T12:20:54.338Z,5.50
2018-11-10T12:23:27.631Z,5.60
2018-11-10T12:26:02.947Z,5.50
2018-11-10T12:28:51.705Z,5.50
2018-11-10T12:31:25.086Z,5.50
2018-11-10T12:33:58.255Z,5.50
2018-11-10T12:36:32.807Z,5.50
2018-11-10T12:39:06.776Z,5.50
2018-11-10T12:41:41.000Z,5.50
2018-11-10T12:44:14.755Z,5.50
2018-11-10T12:46:51.819Z,5.50
2018-11-10T12:49:24.917Z,5.50
2018-11-10T12:51:58.411Z,5.60
2018-11-10T12:54:31.579Z,5.60
2018-11-10T12:57:05.653Z,5.60
2018-11-10T12:59:39.673Z,5.60
2018-11-10T13:02:13.290Z,5.60
2018-11-10T13:04:46.078Z,5.60
2018-11-10T13:07:19.255Z,5.70
2018-11-10T13:09:52.808Z,5.70
2018-11-10T13:12:26.088Z,5.70
2018-11-10T13:14:59.706Z,5.60
2018-11-10T13:17:33.032Z,5.70
2018-11-10T13:20:07.891Z,5.60
2018-11-10T13:22:41.017Z,5.70
2018-11-10T13:25:15.209Z,5.70
2018-11-10T13:27:47.912Z,5.70
2018-11-10T13:30:21.295Z,5.70
2018-11-10T13:32:54.915Z,5.60
2018-11-10T13:35:28.074Z,5.60
2018-11-10T13:38:01.498Z,5.50
2018-11-10T13:40:34.829Z,5.40
2018-11-10T13:43:08.393Z,5.40
2018-11-10T13:45:41.661Z,5.30
2018-11-10T13:48:16.491Z,5.30
2018-11-10T13:50:49.874Z,5.20
2018-11-10T13:53:23.103Z,5.10
2018-11-10T13:55:56.394Z,5.00
2018-11-10T13:58:29.616Z,4.90
2018-11-10T14:01:02.994Z,4.80
2018-11-10T14:03:36.536Z,4.80
2018-11-10T14:06:09.707Z,4.90
2018-11-10T14:08:43.095Z,4.90
2018-11-10T14:11:16.398Z,4.90
2018-11-10T14:13:49.949Z,5.00
2018-11-10T14:16:23.916Z,5.10
2018-11-10T14:18:57.060Z,5.10
2018-11-10T14:21:30.409Z,5.20
2018-11-10T14:24:04.317Z,5.20
2018-11-10T14:26:39.145Z,5.30
2018-11-10T14:29:18.327Z,5.30
2018-11-10T14:31:51.992Z,5.30
2018-11-10T14:34:26.577Z,5.30
2018-11-10T14:36:59.978Z,5.40
2018-11-10T14:39:34.251Z,5.30
2018-11-10T14:42:09.017Z,5.30
2018-11-10T14:44:45.070Z,5.30
2018-11-10T14:47:19.190Z,5.20
2018-11-10T14:49:52.943Z,5.20
2018-11-10T14:52:26.451Z,5.20
2018-11-10T14:55:00.724Z,5.20
2018-11-10T14:57:33.901Z,5.20
2018-11-10T15:00:11.706Z,5.20
2018-11-10T15:02:45.870Z,5.20
2018-11-10T15:05:18.910Z,5.30
2018-11-10T15:07:52.390Z,5.30
2018-11-10T15:10:26.689Z,5.30
2018-11-10T15:13:00.721Z,5.30
2018-11-10T15:15:35.008Z,5.20
2018-11-10T15:18:08.148Z,5.30
2018-11-10T15:20:41.625Z,5.30
2018-11-10T15:23:16.948Z,5.30
2018-11-10T15:25:51.516Z,5.40
2018-11-10T15:28:25.025Z,5.40
2018-11-10T15:30:58.609Z,5.40
2018-11-10T15:33:31.566Z,5.50
2018-11-10T15:36:07.429Z,5.50
2018-11-10T15:38:40.957Z,5.50
2018-11-10T15:41:14.128Z,5.60
2018-11-10T15:43:47.327Z,5.60
2018-11-10T15:46:20.304Z,5.60
2018-11-10T15:48:54.000Z,5.60
2018-11-10T15:51:27.038Z,5.60
2018-11-10T15:54:00.448Z,5.60
2018-11-10T15:56:34.749Z,5.70
2018-11-10T15:59:07.969Z,5.70
2018-11-10T16:01:41.448Z,5.70
2018-11-10T16:04:14.432Z,5.80
2018-11-10T16:06:47.320Z,5.80
2018-11-10T16:09:24.021Z,5.80
2018-11-10T16:11:58.979Z,5.90
2018-11-10T16:14:32.764Z,5.90
2018-11-10T16:17:06.525Z,5.80
2018-11-10T16:19:40.044Z,5.90
2018-11-10T16:22:13.205Z,5.90
2018-11-10T16:24:48.947Z,5.90
2018-11-10T16:27:23.532Z,5.90
2018-11-10T16:29:58.148Z,5.90
2018-11-10T16:32:34.294Z,5.80
2018-11-10T16:35:11.499Z,5.80
2018-11-10T16:37:46.512Z,5.70
2018-11-10T16:40:20.806Z,5.80
2018-11-10T16:42:54.603Z,5.80
2018-11-10T16:45:30.840Z,5.90
2018-11-10T16:48:03.973Z,5.90
2018-11-10T16:50:37.080Z,5.80
2018-11-10T16:53:10.206Z,5.80
2018-11-10T16:55:43.233Z,5.80
2018-11-10T16:58:16.872Z,5.80
2018-11-10T17:00:50.230Z,5.80
2018-11-10T17:03:23.765Z,5.80
2018-11-10T17:05:56.755Z,5.80
2018-11-10T17:08:31.381Z,5.80
2018-11-10T17:11:04.664Z,5.70
2018-11-10T17:13:37.898Z,5.60
2018-11-10T17:16:12.270Z,5.60
2018-11-10T17:18:45.432Z,5.60
2018-11-10T17:21:19.634Z,5.60
2018-11-10T17:23:52.979Z,5.70
2018-11-10T17:26:26.719Z,5.80
2018-11-10T17:29:00.692Z,5.90
2018-11-10T17:31:34.216Z,6.00
2018-11-10T17:34:07.932Z,6.10
2018-11-10T17:36:41.302Z,6.30
2018-11-10T17:39:15.459Z,6.40
2018-11-10T17:41:49.634Z,6.50
2018-11-10T17:44:23.067Z,6.60
2018-11-10T17:46:56.411Z,6.70
2018-11-10T17:49:29.997Z,6.70
2018-11-10T17:52:05.732Z,6.90
2018-11-10T17:54:41.279Z,7.00
2018-11-10T17:57:16.065Z,7.00
2018-11-10T17:59:52.565Z,7.10
2018-11-10T18:02:26.436Z,7.10
2018-11-10T18:05:00.994Z,7.10
2018-11-10T18:07:34.423Z,7.00
2018-11-10T18:10:09.428Z,7.00
2018-11-10T18:12:43.905Z,7.20
2018-11-10T18:15:17.955Z,7.10
2018-11-10T18:17:51.967Z,7.30
2018-11-10T18:20:27.053Z,7.20
2018-11-10T18:23:00.359Z,7.20
2018-11-10T18:25:34.633Z,7.20
2018-11-10T18:28:09.245Z,7.40
2018-11-10T18:30:44.516Z,7.40
2018-11-10T18:33:18.293Z,7.50
2018-11-10T18:35:51.380Z,7.50
2018-11-10T18:38:24.729Z,7.60
2018-11-10T18:40:58.980Z,7.50
2018-11-10T18:43:33.317Z,7.40
2018-11-10T18:46:06.787Z,7.20
2018-11-10T18:48:40.936Z,7.30
2018-11-10T18:51:14.646Z,7.50
2018-11-10T18:53:50.297Z,7.40
2018-11-10T18:56:23.710Z,7.20
2018-11-10T18:58:58.946Z,7.20
2018-11-10T19:01:32.973Z,7.10
2018-11-10T19:04:07.241Z,7.20
2018-11-10T19:06:40.464Z,7.30
2018-11-10T19:09:14.955Z,7.50
2018-11-10T19:11:48.800Z,7.70
2018-11-10T19:14:22.175Z,7.80
2018-11-10T19:16:55.695Z,8.00
2018-11-10T19:19:30.062Z,8.00
2018-11-10T19:22:03.430Z,8.10
2018-11-10T19:24:36.570Z,8.20
2018-11-10T19:27:09.802Z,8.50
2018-11-10T19:29:43.830Z,8.60
2018-11-10T19:32:17.128Z,8.80
2018-11-10T19:34:50.525Z,8.70
2018-11-10T19:37:24.801Z,8.80
2018-11-10T19:39:59.612Z,8.80
2018-11-10T19:42:33.330Z,8.80
2018-11-10T19:45:07.902Z,8.80
2018-11-10T19:47:43.812Z,8.70
2018-11-10T19:50:17.760Z,8.80
2018-11-10T19:52:55.025Z,8.90
2018-11-10T19:55:27.951Z,8.80
2018-11-10T19:58:02.821Z,8.80
2018-11-10T20:00:36.480Z,8.70
2018-11-10T20:03:10.136Z,8.80
2018-11-10T20:05:43.769Z,8.80
2018-11-10T20:08:16.985Z,8.90
2018-11-10T20:10:51.522Z,9.10
2018-11-10T20:13:25.284Z,9.20
2018-11-10T20:16:00.190Z,9.10
2018-11-10T20:18:33.558Z,9.10
2018-11-10T20:21:06.822Z,9.10
2018-11-10T20:23:40.597Z,9.20
2018-11-10T20:26:13.645Z,9.30
2018-11-10T20:28:46.670Z,9.30
2018-11-10T20:31:20.074Z,9.40
2018-11-10T20:33:53.309Z,9.50
2018-11-10T20:36:26.491Z,9.60
2018-11-10T20:39:00.884Z,9.70
2018-11-10T20:41:36.446Z,9.60
2018-11-10T20:44:10.288Z,9.50
2018-11-10T20:46:43.945Z,9.30
2018-11-10T20:49:17.091Z,9.20
2018-11-10T20:51:50.437Z,9.20
2018-11-10T20:54:25.115Z,9.30
2018-11-10T20:56:58.254Z,9.40
2018-11-10T20:59:31.725Z,9.50
2018-11-10T21:02:05.549Z,9.50
2018-11-10T21:04:39.542Z,9.50
2018-11-10T21:07:13.686Z,9.50
2018-11-10T21:09:47.078Z,9.70
2018-11-10T21:12:22.362Z,9.70
2018-11-10T21:14:57.092Z,9.80
2018-11-10T21:17:32.368Z,9.90
2018-11-10T21:20:07.531Z,10.00
2018-11-10T21:22:40.948Z,10.00
2018-11-10T21:25:18.694Z,10.00
2018-11-10T21:27:52.460Z,10.00
2018-11-10T21:30:25.721Z,10.00
2018-11-10T21:33:00.778Z,9.90
2018-11-10T21:35:34.516Z,9.90
2018-11-10T21:38:08.382Z,10.00
2018-11-10T21:40:41.747Z,10.10
2018-11-10T21:43:16.748Z,10.20
2018-11-10T21:45:50.731Z,10.20
2018-11-10T21:48:24.031Z,10.30
2018-11-10T21:50:58.020Z,10.50
2018-11-10T21:53:31.797Z,10.40
2018-11-10T21:56:06.726Z,10.20
2018-11-10T21:58:41.348Z,9.90
2018-11-10T22:01:14.244Z,9.90
2018-11-10T22:03:47.845Z,10.00
2018-11-10T22:06:21.852Z,10.10
2018-11-10T22:08:55.770Z,10.20
2018-11-10T22:11:28.626Z,10.20
2018-11-10T22:14:02.749Z,10.30
2018-11-10T22:16:35.821Z,10.40
2018-11-10T22:19:09.691Z,10.30
2018-11-10T22:21:43.228Z,10.40
2018-11-10T22:24:16.357Z,10.40
2018-11-10T22:26:49.803Z,10.30
2018-11-10T22:29:22.952Z,10.40
2018-11-10T22:31:56.309Z,10.50
2018-11-10T22:34:30.483Z,10.50
2018-11-10T22:37:04.252Z,10.40
2018-11-10T22:39:37.265Z,10.30
2018-11-10T22:42:11.659Z,10.30
2018-11-10T22:44:45.534Z,10.30
2018-11-10T22:47:19.218Z,10.40
2018-11-10T22:49:52.523Z,10.40
2018-11-10T22:52:26.447Z,10.50
2018-11-10T22:54:59.992Z,10.40
2018-11-10T22:57:33.186Z,10.30
2018-11-10T23:00:08.200Z,10.20
2018-11-10T23:02:41.542Z,10.00
2018-11-10T23:05:16.421Z,9.80
2018-11-10T23:07:49.949Z,9.60
2018-11-10T23:10:23.472Z,9.40
2018-11-10T23:12:59.357Z,9.30
2018-11-10T23:15:33.518Z,9.20
2018-11-10T23:18:08.690Z,9.00
2018-11-10T23:20:43.112Z,8.90
2018-11-10T23:23:16.601Z,8.90
2018-11-10T23:25:49.787Z,8.80
2018-11-10T23:28:23.034Z,8.70
2018-11-10T23:30:58.124Z,8.70
2018-11-10T23:33:32.557Z,8.60
2018-11-10T23:36:06.288Z,8.60
2018-11-10T23:38:39.441Z,8.50
2018-11-10T23:41:15.886Z,8.40
2018-11-10T23:43:50.111Z,8.30
2018-11-10T23:46:24.387Z,8.30
2018-11-10T23:48:58.759Z,8.30
2018-11-10T23:51:32.715Z,8.20
2018-11-10T23:54:06.192Z,8.10
2018-11-10T23:56:41.207Z,8.10
2018-11-10T23:59:14.481Z,8.00
